sensor_id;sensor_type;location;lat;lon;timestamp;P1;durP1;ratioP1;P2;durP2;ratioP2
72408;SDS011;60402;48.082;11.628;2023-12-20T00:01:10;3.78;;;1.52;;
72408;SDS011;60402;48.082;11.628;2023-12-20T00:03:56;4.55;;;1.75;;
72408;SDS011;60402;48.082;11.628;2023-12-20T00:06:41;3.88;;;1.45;;
72408;SDS011;60402;48.082;11.628;2023-12-20T00:09:27;4.00;;;1.38;;
72408;SDS011;60402;48.082;11.628;2023-12-20T00:12:13;5.68;;;2.20;;
72408;SDS011;60402;48.082;11.628;2023-12-20T00:14:58;6.03;;;2.22;;
72408;SDS011;60402;48.082;11.628;2023-12-20T00:17:44;12.70;;;4.63;;
72408;SDS011;60402;48.082;11.628;2023-12-20T00:20:30;19.58;;;8.23;;
72408;SDS011;60402;48.082;11.628;2023-12-20T00:23:15;24.80;;;9.75;;
72408;SDS011;60402;48.082;11.628;2023-12-20T00:26:01;14.77;;;5.57;;
72408;SDS011;60402;48.082;11.628;2023-12-20T00:28:47;8.07;;;2.97;;
72408;SDS011;60402;48.082;11.628;2023-12-20T00:31:32;4.95;;;2.20;;
72408;SDS011;60402;48.082;11.628;2023-12-20T00:34:18;4.38;;;1.80;;
72408;SDS011;60402;48.082;11.628;2023-12-20T00:37:04;5.97;;;2.10;;
72408;SDS011;60402;48.082;11.628;2023-12-20T00:39:49;3.20;;;1.50;;
72408;SDS011;60402;48.082;11.628;2023-12-20T00:42:35;3.35;;;1.75;;
72408;SDS011;60402;48.082;11.628;2023-12-20T00:45:29;2.50;;;1.02;;
72408;SDS011;60402;48.082;11.628;2023-12-20T00:48:15;4.13;;;1.50;;
72408;SDS011;60402;48.082;11.628;2023-12-20T00:51:01;2.58;;;1.02;;
72408;SDS011;60402;48.082;11.628;2023-12-20T00:53:46;1.25;;;0.80;;
72408;SDS011;60402;48.082;11.628;2023-12-20T00:56:35;4.45;;;1.35;;
72408;SDS011;60402;48.082;11.628;2023-12-20T00:59:20;3.45;;;1.30;;
72408;SDS011;60402;48.082;11.628;2023-12-20T01:02:06;2.40;;;1.00;;
72408;SDS011;60402;48.082;11.628;2023-12-20T01:04:52;2.42;;;0.93;;
72408;SDS011;60402;48.082;11.628;2023-12-20T01:07:37;2.80;;;1.10;;
72408;SDS011;60402;48.082;11.628;2023-12-20T01:10:23;2.03;;;0.88;;
72408;SDS011;60402;48.082;11.628;2023-12-20T01:13:09;3.55;;;1.10;;
72408;SDS011;60402;48.082;11.628;2023-12-20T01:15:54;3.58;;;1.20;;
72408;SDS011;60402;48.082;11.628;2023-12-20T01:18:40;2.20;;;1.08;;
72408;SDS011;60402;48.082;11.628;2023-12-20T01:21:26;2.17;;;1.10;;
72408;SDS011;60402;48.082;11.628;2023-12-20T01:24:12;2.45;;;0.80;;
72408;SDS011;60402;48.082;11.628;2023-12-20T01:26:57;3.13;;;1.10;;
72408;SDS011;60402;48.082;11.628;2023-12-20T01:29:43;3.05;;;0.98;;
72408;SDS011;60402;48.082;11.628;2023-12-20T01:32:29;1.58;;;0.90;;
72408;SDS011;60402;48.082;11.628;2023-12-20T01:35:14;1.90;;;1.10;;
72408;SDS011;60402;48.082;11.628;2023-12-20T01:38:00;3.75;;;1.20;;
72408;SDS011;60402;48.082;11.628;2023-12-20T01:40:46;2.55;;;1.15;;
72408;SDS011;60402;48.082;11.628;2023-12-20T01:43:31;3.60;;;1.13;;
72408;SDS011;60402;48.082;11.628;2023-12-20T01:46:17;2.45;;;0.88;;
72408;SDS011;60402;48.082;11.628;2023-12-20T01:49:04;4.78;;;1.30;;
72408;SDS011;60402;48.082;11.628;2023-12-20T01:51:50;4.15;;;1.30;;
72408;SDS011;60402;48.082;11.628;2023-12-20T01:54:36;3.40;;;1.00;;
72408;SDS011;60402;48.082;11.628;2023-12-20T01:57:22;2.15;;;0.95;;
72408;SDS011;60402;48.082;11.628;2023-12-20T02:00:09;2.47;;;0.80;;
72408;SDS011;60402;48.082;11.628;2023-12-20T02:02:56;3.08;;;0.90;;
72408;SDS011;60402;48.082;11.628;2023-12-20T02:05:46;1.90;;;0.65;;
72408;SDS011;60402;48.082;11.628;2023-12-20T02:08:33;3.22;;;1.10;;
72408;SDS011;60402;48.082;11.628;2023-12-20T02:11:19;2.83;;;0.98;;
72408;SDS011;60402;48.082;11.628;2023-12-20T02:14:05;2.30;;;0.90;;
72408;SDS011;60402;48.082;11.628;2023-12-20T02:16:51;2.42;;;0.90;;
72408;SDS011;60402;48.082;11.628;2023-12-20T02:19:37;1.55;;;0.70;;
72408;SDS011;60402;48.082;11.628;2023-12-20T02:22:22;2.22;;;0.82;;
72408;SDS011;60402;48.082;11.628;2023-12-20T02:25:08;2.15;;;0.63;;
72408;SDS011;60402;48.082;11.628;2023-12-20T02:27:54;2.80;;;0.90;;
72408;SDS011;60402;48.082;11.628;2023-12-20T02:30:40;2.95;;;0.85;;
72408;SDS011;60402;48.082;11.628;2023-12-20T02:33:25;1.05;;;0.70;;
72408;SDS011;60402;48.082;11.628;2023-12-20T02:36:11;1.23;;;0.57;;
72408;SDS011;60402;48.082;11.628;2023-12-20T02:38:57;1.60;;;0.60;;
72408;SDS011;60402;48.082;11.628;2023-12-20T02:41:42;1.73;;;0.80;;
72408;SDS011;60402;48.082;11.628;2023-12-20T02:44:28;1.42;;;0.70;;
72408;SDS011;60402;48.082;11.628;2023-12-20T02:47:14;2.17;;;0.80;;
72408;SDS011;60402;48.082;11.628;2023-12-20T02:49:59;1.27;;;0.70;;
72408;SDS011;60402;48.082;11.628;2023-12-20T02:52:45;0.85;;;0.50;;
72408;SDS011;60402;48.082;11.628;2023-12-20T02:55:31;2.20;;;0.73;;
72408;SDS011;60402;48.082;11.628;2023-12-20T02:58:17;2.13;;;0.65;;
72408;SDS011;60402;48.082;11.628;2023-12-20T03:01:03;1.45;;;0.40;;
72408;SDS011;60402;48.082;11.628;2023-12-20T03:03:49;2.20;;;0.90;;
72408;SDS011;60402;48.082;11.628;2023-12-20T03:06:34;2.00;;;0.60;;
72408;SDS011;60402;48.082;11.628;2023-12-20T03:09:20;1.92;;;0.82;;
72408;SDS011;60402;48.082;11.628;2023-12-20T03:12:05;1.13;;;0.55;;
72408;SDS011;60402;48.082;11.628;2023-12-20T03:14:51;1.83;;;0.75;;
72408;SDS011;60402;48.082;11.628;2023-12-20T03:17:37;1.73;;;0.75;;
72408;SDS011;60402;48.082;11.628;2023-12-20T03:20:22;2.58;;;0.90;;
72408;SDS011;60402;48.082;11.628;2023-12-20T03:23:08;1.67;;;0.85;;
72408;SDS011;60402;48.082;11.628;2023-12-20T03:25:54;2.33;;;0.95;;
72408;SDS011;60402;48.082;11.628;2023-12-20T03:28:39;2.53;;;0.85;;
72408;SDS011;60402;48.082;11.628;2023-12-20T03:31:25;2.72;;;0.90;;
72408;SDS011;60402;48.082;11.628;2023-12-20T03:34:11;2.47;;;0.77;;
72408;SDS011;60402;48.082;11.628;2023-12-20T03:36:57;1.58;;;0.93;;
72408;SDS011;60402;48.082;11.628;2023-12-20T03:39:42;1.48;;;0.70;;
72408;SDS011;60402;48.082;11.628;2023-12-20T03:42:28;1.77;;;0.77;;
72408;SDS011;60402;48.082;11.628;2023-12-20T03:45:14;3.42;;;1.00;;
72408;SDS011;60402;48.082;11.628;2023-12-20T03:47:59;2.10;;;0.82;;
72408;SDS011;60402;48.082;11.628;2023-12-20T03:50:45;2.50;;;0.85;;
72408;SDS011;60402;48.082;11.628;2023-12-20T03:53:31;2.05;;;1.00;;
72408;SDS011;60402;48.082;11.628;2023-12-20T03:56:16;2.40;;;0.88;;
72408;SDS011;60402;48.082;11.628;2023-12-20T03:59:02;1.25;;;0.75;;
72408;SDS011;60402;48.082;11.628;2023-12-20T04:01:47;0.95;;;0.65;;
72408;SDS011;60402;48.082;11.628;2023-12-20T04:04:33;1.85;;;0.75;;
72408;SDS011;60402;48.082;11.628;2023-12-20T04:07:19;1.20;;;0.60;;
72408;SDS011;60402;48.082;11.628;2023-12-20T04:10:05;1.08;;;0.45;;
72408;SDS011;60402;48.082;11.628;2023-12-20T04:12:51;0.90;;;0.40;;
72408;SDS011;60402;48.082;11.628;2023-12-20T04:15:36;0.40;;;0.30;;
72408;SDS011;60402;48.082;11.628;2023-12-20T04:18:22;2.08;;;0.50;;
72408;SDS011;60402;48.082;11.628;2023-12-20T04:21:07;0.88;;;0.40;;
72408;SDS011;60402;48.082;11.628;2023-12-20T04:23:53;1.63;;;0.50;;
72408;SDS011;60402;48.082;11.628;2023-12-20T04:26:39;1.25;;;0.50;;
72408;SDS011;60402;48.082;11.628;2023-12-20T04:29:24;1.05;;;0.43;;
72408;SDS011;60402;48.082;11.628;2023-12-20T04:32:10;1.02;;;0.60;;
72408;SDS011;60402;48.082;11.628;2023-12-20T04:34:55;1.38;;;0.40;;
72408;SDS011;60402;48.082;11.628;2023-12-20T04:37:41;1.23;;;0.50;;
72408;SDS011;60402;48.082;11.628;2023-12-20T04:40:27;1.65;;;0.50;;
72408;SDS011;60402;48.082;11.628;2023-12-20T04:43:12;0.93;;;0.50;;
72408;SDS011;60402;48.082;11.628;2023-12-20T04:45:58;0.65;;;0.50;;
72408;SDS011;60402;48.082;11.628;2023-12-20T04:48:44;1.65;;;0.60;;
72408;SDS011;60402;48.082;11.628;2023-12-20T04:51:29;1.83;;;0.90;;
72408;SDS011;60402;48.082;11.628;2023-12-20T04:54:15;1.88;;;0.68;;
72408;SDS011;60402;48.082;11.628;2023-12-20T04:57:01;0.93;;;0.55;;
72408;SDS011;60402;48.082;11.628;2023-12-20T04:59:46;1.52;;;0.70;;
72408;SDS011;60402;48.082;11.628;2023-12-20T05:02:32;2.50;;;0.90;;
72408;SDS011;60402;48.082;11.628;2023-12-20T05:05:17;2.08;;;0.80;;
72408;SDS011;60402;48.082;11.628;2023-12-20T05:08:03;1.85;;;0.82;;
72408;SDS011;60402;48.082;11.628;2023-12-20T05:10:49;1.60;;;0.75;;
72408;SDS011;60402;48.082;11.628;2023-12-20T05:13:35;2.75;;;1.00;;
72408;SDS011;60402;48.082;11.628;2023-12-20T05:16:20;1.77;;;1.00;;
72408;SDS011;60402;48.082;11.628;2023-12-20T05:19:06;3.28;;;1.02;;
72408;SDS011;60402;48.082;11.628;2023-12-20T05:21:52;2.10;;;0.90;;
72408;SDS011;60402;48.082;11.628;2023-12-20T05:24:37;2.50;;;0.75;;
72408;SDS011;60402;48.082;11.628;2023-12-20T05:27:23;1.70;;;0.82;;
72408;SDS011;60402;48.082;11.628;2023-12-20T05:30:09;2.63;;;0.77;;
72408;SDS011;60402;48.082;11.628;2023-12-20T05:32:55;2.88;;;0.90;;
72408;SDS011;60402;48.082;11.628;2023-12-20T05:35:40;2.20;;;0.80;;
72408;SDS011;60402;48.082;11.628;2023-12-20T05:38:26;2.15;;;0.88;;
72408;SDS011;60402;48.082;11.628;2023-12-20T05:41:12;2.00;;;0.82;;
72408;SDS011;60402;48.082;11.628;2023-12-20T05:43:58;1.98;;;0.73;;
72408;SDS011;60402;48.082;11.628;2023-12-20T05:46:44;1.80;;;0.77;;
72408;SDS011;60402;48.082;11.628;2023-12-20T05:49:30;2.08;;;0.75;;
72408;SDS011;60402;48.082;11.628;2023-12-20T05:52:16;2.30;;;0.95;;
72408;SDS011;60402;48.082;11.628;2023-12-20T05:55:02;6.72;;;1.10;;
72408;SDS011;60402;48.082;11.628;2023-12-20T05:57:51;1.75;;;0.73;;
72408;SDS011;60402;48.082;11.628;2023-12-20T06:00:36;2.75;;;0.95;;
72408;SDS011;60402;48.082;11.628;2023-12-20T06:03:25;2.03;;;0.73;;
72408;SDS011;60402;48.082;11.628;2023-12-20T06:06:10;3.90;;;0.90;;
72408;SDS011;60402;48.082;11.628;2023-12-20T06:08:56;2.53;;;0.80;;
72408;SDS011;60402;48.082;11.628;2023-12-20T06:11:42;3.92;;;1.10;;
72408;SDS011;60402;48.082;11.628;2023-12-20T06:14:28;3.78;;;0.95;;
72408;SDS011;60402;48.082;11.628;2023-12-20T06:17:13;2.13;;;0.85;;
72408;SDS011;60402;48.082;11.628;2023-12-20T06:19:59;3.30;;;1.17;;
72408;SDS011;60402;48.082;11.628;2023-12-20T06:22:45;2.13;;;0.85;;
72408;SDS011;60402;48.082;11.628;2023-12-20T06:25:30;3.40;;;0.70;;
72408;SDS011;60402;48.082;11.628;2023-12-20T06:28:16;1.92;;;0.77;;
72408;SDS011;60402;48.082;11.628;2023-12-20T06:31:02;1.92;;;0.80;;
72408;SDS011;60402;48.082;11.628;2023-12-20T06:33:48;3.67;;;1.10;;
72408;SDS011;60402;48.082;11.628;2023-12-20T06:36:42;1.05;;;0.55;;
72408;SDS011;60402;48.082;11.628;2023-12-20T06:39:28;2.67;;;0.80;;
72408;SDS011;60402;48.082;11.628;2023-12-20T06:42:14;1.65;;;0.70;;
72408;SDS011;60402;48.082;11.628;2023-12-20T06:45:00;0.98;;;0.60;;
72408;SDS011;60402;48.082;11.628;2023-12-20T06:47:45;3.67;;;1.00;;
72408;SDS011;60402;48.082;11.628;2023-12-20T06:50:31;1.10;;;0.50;;
72408;SDS011;60402;48.082;11.628;2023-12-20T06:53:17;4.03;;;0.80;;
72408;SDS011;60402;48.082;11.628;2023-12-20T06:56:02;2.00;;;1.00;;
72408;SDS011;60402;48.082;11.628;2023-12-20T06:58:48;0.93;;;0.43;;
72408;SDS011;60402;48.082;11.628;2023-12-20T07:01:34;2.17;;;0.55;;
72408;SDS011;60402;48.082;11.628;2023-12-20T07:04:19;0.95;;;0.40;;
72408;SDS011;60402;48.082;11.628;2023-12-20T07:07:07;2.40;;;0.55;;
72408;SDS011;60402;48.082;11.628;2023-12-20T07:09:52;0.73;;;0.50;;
72408;SDS011;60402;48.082;11.628;2023-12-20T07:12:38;0.90;;;0.30;;
72408;SDS011;60402;48.082;11.628;2023-12-20T07:15:24;0.95;;;0.40;;
72408;SDS011;60402;48.082;11.628;2023-12-20T07:18:09;1.38;;;0.30;;
72408;SDS011;60402;48.082;11.628;2023-12-20T07:20:55;1.00;;;0.40;;
72408;SDS011;60402;48.082;11.628;2023-12-20T07:23:41;0.50;;;0.38;;
72408;SDS011;60402;48.082;11.628;2023-12-20T07:26:26;1.15;;;0.45;;
72408;SDS011;60402;48.082;11.628;2023-12-20T07:29:12;0.50;;;0.50;;
72408;SDS011;60402;48.082;11.628;2023-12-20T07:31:58;0.77;;;0.30;;
72408;SDS011;60402;48.082;11.628;2023-12-20T07:34:44;1.05;;;0.38;;
72408;SDS011;60402;48.082;11.628;2023-12-20T07:37:29;0.68;;;0.25;;
72408;SDS011;60402;48.082;11.628;2023-12-20T07:40:15;0.65;;;0.32;;
72408;SDS011;60402;48.082;11.628;2023-12-20T07:43:02;1.08;;;0.38;;
72408;SDS011;60402;48.082;11.628;2023-12-20T07:45:48;0.65;;;0.30;;
72408;SDS011;60402;48.082;11.628;2023-12-20T07:48:37;1.17;;;0.38;;
72408;SDS011;60402;48.082;11.628;2023-12-20T07:51:23;1.50;;;0.45;;
72408;SDS011;60402;48.082;11.628;2023-12-20T07:54:08;0.65;;;0.38;;
72408;SDS011;60402;48.082;11.628;2023-12-20T07:56:55;1.00;;;0.60;;
72408;SDS011;60402;48.082;11.628;2023-12-20T07:59:40;1.73;;;0.50;;
72408;SDS011;60402;48.082;11.628;2023-12-20T08:02:26;1.40;;;0.45;;
72408;SDS011;60402;48.082;11.628;2023-12-20T08:05:12;1.83;;;0.70;;
72408;SDS011;60402;48.082;11.628;2023-12-20T08:07:58;1.33;;;0.47;;
72408;SDS011;60402;48.082;11.628;2023-12-20T08:10:44;0.82;;;0.40;;
72408;SDS011;60402;48.082;11.628;2023-12-20T08:13:30;6.65;;;0.50;;
72408;SDS011;60402;48.082;11.628;2023-12-20T08:16:15;2.25;;;0.32;;
72408;SDS011;60402;48.082;11.628;2023-12-20T08:19:02;0.80;;;0.40;;
72408;SDS011;60402;48.082;11.628;2023-12-20T08:21:48;1.65;;;0.60;;
72408;SDS011;60402;48.082;11.628;2023-12-20T08:24:34;1.38;;;0.50;;
72408;SDS011;60402;48.082;11.628;2023-12-20T08:27:19;1.58;;;0.40;;
72408;SDS011;60402;48.082;11.628;2023-12-20T08:30:08;0.43;;;0.40;;
72408;SDS011;60402;48.082;11.628;2023-12-20T08:32:54;1.00;;;0.35;;
72408;SDS011;60402;48.082;11.628;2023-12-20T08:35:40;0.70;;;0.40;;
72408;SDS011;60402;48.082;11.628;2023-12-20T08:41:08;2.20;;;0.50;;
72408;SDS011;60402;48.082;11.628;2023-12-20T08:43:54;1.48;;;0.28;;
72408;SDS011;60402;48.082;11.628;2023-12-20T08:46:39;0.57;;;0.30;;
72408;SDS011;60402;48.082;11.628;2023-12-20T08:49:25;0.63;;;0.43;;
72408;SDS011;60402;48.082;11.628;2023-12-20T08:52:11;1.60;;;0.50;;
72408;SDS011;60402;48.082;11.628;2023-12-20T08:54:56;1.10;;;0.30;;
72408;SDS011;60402;48.082;11.628;2023-12-20T08:57:42;0.95;;;0.50;;
72408;SDS011;60402;48.082;11.628;2023-12-20T09:00:28;0.95;;;0.40;;
72408;SDS011;60402;48.082;11.628;2023-12-20T09:03:14;1.42;;;0.47;;
72408;SDS011;60402;48.082;11.628;2023-12-20T09:06:00;0.68;;;0.30;;
72408;SDS011;60402;48.082;11.628;2023-12-20T09:08:46;0.80;;;0.30;;
72408;SDS011;60402;48.082;11.628;2023-12-20T09:11:31;0.60;;;0.30;;
72408;SDS011;60402;48.082;11.628;2023-12-20T09:14:17;0.57;;;0.30;;
72408;SDS011;60402;48.082;11.628;2023-12-20T09:17:03;0.57;;;0.30;;
72408;SDS011;60402;48.082;11.628;2023-12-20T09:19:49;0.75;;;0.22;;
72408;SDS011;60402;48.082;11.628;2023-12-20T09:22:35;0.63;;;0.30;;
72408;SDS011;60402;48.082;11.628;2023-12-20T09:25:23;2.00;;;0.30;;
72408;SDS011;60402;48.082;11.628;2023-12-20T09:28:11;1.17;;;0.30;;
72408;SDS011;60402;48.082;11.628;2023-12-20T09:30:56;0.30;;;0.25;;
72408;SDS011;60402;48.082;11.628;2023-12-20T09:33:42;2.30;;;0.47;;
72408;SDS011;60402;48.082;11.628;2023-12-20T09:36:28;0.90;;;0.32;;
72408;SDS011;60402;48.082;11.628;2023-12-20T09:39:14;1.30;;;0.43;;
72408;SDS011;60402;48.082;11.628;2023-12-20T09:42:01;0.82;;;0.30;;
72408;SDS011;60402;48.082;11.628;2023-12-20T09:44:48;0.85;;;0.35;;
72408;SDS011;60402;48.082;11.628;2023-12-20T09:47:34;2.33;;;0.32;;
72408;SDS011;60402;48.082;11.628;2023-12-20T09:50:21;0.98;;;0.40;;
72408;SDS011;60402;48.082;11.628;2023-12-20T09:53:07;0.77;;;0.32;;
72408;SDS011;60402;48.082;11.628;2023-12-20T09:55:58;1.42;;;0.45;;
72408;SDS011;60402;48.082;11.628;2023-12-20T09:58:45;0.75;;;0.30;;
72408;SDS011;60402;48.082;11.628;2023-12-20T10:01:31;1.05;;;0.60;;
72408;SDS011;60402;48.082;11.628;2023-12-20T10:04:19;1.42;;;0.50;;
72408;SDS011;60402;48.082;11.628;2023-12-20T10:07:05;0.50;;;0.30;;
72408;SDS011;60402;48.082;11.628;2023-12-20T10:09:51;0.47;;;0.30;;
72408;SDS011;60402;48.082;11.628;2023-12-20T10:12:40;1.13;;;0.35;;
72408;SDS011;60402;48.082;11.628;2023-12-20T10:15:26;1.63;;;0.30;;
72408;SDS011;60402;48.082;11.628;2023-12-20T10:18:12;1.20;;;0.60;;
72408;SDS011;60402;48.082;11.628;2023-12-20T10:20:58;0.77;;;0.40;;
72408;SDS011;60402;48.082;11.628;2023-12-20T10:23:44;0.68;;;0.30;;
72408;SDS011;60402;48.082;11.628;2023-12-20T10:26:29;0.88;;;0.40;;
72408;SDS011;60402;48.082;11.628;2023-12-20T10:29:15;1.90;;;0.57;;
72408;SDS011;60402;48.082;11.628;2023-12-20T10:32:21;1.58;;;0.50;;
72408;SDS011;60402;48.082;11.628;2023-12-20T10:35:09;1.65;;;0.57;;
72408;SDS011;60402;48.082;11.628;2023-12-20T10:37:55;1.25;;;0.43;;
72408;SDS011;60402;48.082;11.628;2023-12-20T10:40:42;0.80;;;0.40;;
72408;SDS011;60402;48.082;11.628;2023-12-20T10:43:28;1.05;;;0.50;;
72408;SDS011;60402;48.082;11.628;2023-12-20T10:46:15;0.88;;;0.55;;
72408;SDS011;60402;48.082;11.628;2023-12-20T10:49:04;0.68;;;0.60;;
72408;SDS011;60402;48.082;11.628;2023-12-20T10:51:52;3.20;;;0.50;;
72408;SDS011;60402;48.082;11.628;2023-12-20T10:54:40;0.52;;;0.38;;
72408;SDS011;60402;48.082;11.628;2023-12-20T10:57:26;1.00;;;0.43;;
72408;SDS011;60402;48.082;11.628;2023-12-20T11:00:13;0.63;;;0.40;;
72408;SDS011;60402;48.082;11.628;2023-12-20T11:03:01;0.40;;;0.40;;
72408;SDS011;60402;48.082;11.628;2023-12-20T11:06:08;3.75;;;0.60;;
72408;SDS011;60402;48.082;11.628;2023-12-20T11:09:24;1.67;;;0.50;;
72408;SDS011;60402;48.082;11.628;2023-12-20T11:12:16;3.25;;;0.40;;
72408;SDS011;60402;48.082;11.628;2023-12-20T11:15:11;0.70;;;0.40;;
72408;SDS011;60402;48.082;11.628;2023-12-20T11:17:58;1.20;;;0.55;;
72408;SDS011;60402;48.082;11.628;2023-12-20T11:20:44;3.33;;;0.88;;
72408;SDS011;60402;48.082;11.628;2023-12-20T11:23:30;0.80;;;0.40;;
72408;SDS011;60402;48.082;11.628;2023-12-20T11:26:22;1.00;;;0.50;;
72408;SDS011;60402;48.082;11.628;2023-12-20T11:32:38;1.67;;;0.70;;
72408;SDS011;60402;48.082;11.628;2023-12-20T11:35:25;1.63;;;0.60;;
72408;SDS011;60402;48.082;11.628;2023-12-20T11:38:11;1.98;;;0.70;;
72408;SDS011;60402;48.082;11.628;2023-12-20T11:40:59;0.88;;;0.40;;
72408;SDS011;60402;48.082;11.628;2023-12-20T11:43:57;0.85;;;0.45;;
72408;SDS011;60402;48.082;11.628;2023-12-20T11:46:44;0.65;;;0.50;;
72408;SDS011;60402;48.082;11.628;2023-12-20T11:49:32;3.88;;;0.70;;
72408;SDS011;60402;48.082;11.628;2023-12-20T11:52:18;1.75;;;0.60;;
72408;SDS011;60402;48.082;11.628;2023-12-20T11:55:04;1.60;;;0.63;;
72408;SDS011;60402;48.082;11.628;2023-12-20T11:57:50;3.42;;;0.77;;
72408;SDS011;60402;48.082;11.628;2023-12-20T12:00:37;2.00;;;0.80;;
72408;SDS011;60402;48.082;11.628;2023-12-20T12:03:22;1.50;;;0.70;;
72408;SDS011;60402;48.082;11.628;2023-12-20T12:06:09;1.60;;;0.55;;
72408;SDS011;60402;48.082;11.628;2023-12-20T12:08:55;2.25;;;0.90;;
72408;SDS011;60402;48.082;11.628;2023-12-20T12:11:40;1.80;;;0.60;;
72408;SDS011;60402;48.082;11.628;2023-12-20T12:14:26;1.02;;;0.60;;
72408;SDS011;60402;48.082;11.628;2023-12-20T12:17:13;1.42;;;0.77;;
72408;SDS011;60402;48.082;11.628;2023-12-20T12:20:05;1.77;;;0.60;;
72408;SDS011;60402;48.082;11.628;2023-12-20T12:23:02;1.00;;;0.70;;
72408;SDS011;60402;48.082;11.628;2023-12-20T12:25:49;2.03;;;0.50;;
72408;SDS011;60402;48.082;11.628;2023-12-20T12:28:35;1.13;;;0.50;;
72408;SDS011;60402;48.082;11.628;2023-12-20T12:31:21;1.80;;;0.60;;
72408;SDS011;60402;48.082;11.628;2023-12-20T12:34:06;1.00;;;0.60;;
72408;SDS011;60402;48.082;11.628;2023-12-20T12:36:54;0.90;;;0.47;;
72408;SDS011;60402;48.082;11.628;2023-12-20T12:39:40;2.15;;;0.95;;
72408;SDS011;60402;48.082;11.628;2023-12-20T12:42:26;0.93;;;0.50;;
72408;SDS011;60402;48.082;11.628;2023-12-20T12:45:14;1.60;;;0.70;;
72408;SDS011;60402;48.082;11.628;2023-12-20T12:47:59;1.10;;;0.40;;
72408;SDS011;60402;48.082;11.628;2023-12-20T12:50:45;1.00;;;0.52;;
72408;SDS011;60402;48.082;11.628;2023-12-20T12:53:31;0.95;;;0.45;;
72408;SDS011;60402;48.082;11.628;2023-12-20T12:56:17;1.13;;;0.50;;
72408;SDS011;60402;48.082;11.628;2023-12-20T12:59:03;1.17;;;0.57;;
72408;SDS011;60402;48.082;11.628;2023-12-20T13:01:48;1.48;;;0.60;;
72408;SDS011;60402;48.082;11.628;2023-12-20T13:04:34;2.63;;;0.60;;
72408;SDS011;60402;48.082;11.628;2023-12-20T13:07:19;1.50;;;0.50;;
72408;SDS011;60402;48.082;11.628;2023-12-20T13:10:05;2.08;;;0.52;;
72408;SDS011;60402;48.082;11.628;2023-12-20T13:12:51;3.08;;;1.40;;
72408;SDS011;60402;48.082;11.628;2023-12-20T13:15:37;2.13;;;0.70;;
72408;SDS011;60402;48.082;11.628;2023-12-20T13:18:23;1.95;;;0.70;;
72408;SDS011;60402;48.082;11.628;2023-12-20T13:21:08;1.08;;;0.50;;
72408;SDS011;60402;48.082;11.628;2023-12-20T13:23:54;2.15;;;0.70;;
72408;SDS011;60402;48.082;11.628;2023-12-20T13:26:40;2.33;;;0.77;;
72408;SDS011;60402;48.082;11.628;2023-12-20T13:29:26;2.17;;;1.17;;
72408;SDS011;60402;48.082;11.628;2023-12-20T13:32:14;4.70;;;1.17;;
72408;SDS011;60402;48.082;11.628;2023-12-20T13:35:00;3.53;;;1.30;;
72408;SDS011;60402;48.082;11.628;2023-12-20T13:37:46;2.85;;;1.30;;
72408;SDS011;60402;48.082;11.628;2023-12-20T13:40:32;3.13;;;1.40;;
72408;SDS011;60402;48.082;11.628;2023-12-20T13:43:21;2.65;;;1.10;;
72408;SDS011;60402;48.082;11.628;2023-12-20T13:46:12;3.38;;;1.17;;
72408;SDS011;60402;48.082;11.628;2023-12-20T13:49:03;2.05;;;1.08;;
72408;SDS011;60402;48.082;11.628;2023-12-20T13:51:56;2.95;;;1.10;;
72408;SDS011;60402;48.082;11.628;2023-12-20T13:54:42;2.60;;;0.95;;
72408;SDS011;60402;48.082;11.628;2023-12-20T13:57:35;6.20;;;1.75;;
72408;SDS011;60402;48.082;11.628;2023-12-20T14:00:23;11.75;;;2.50;;
72408;SDS011;60402;48.082;11.628;2023-12-20T14:03:08;8.35;;;3.00;;
72408;SDS011;60402;48.082;11.628;2023-12-20T14:05:54;4.15;;;1.60;;
72408;SDS011;60402;48.082;11.628;2023-12-20T14:08:40;7.70;;;2.40;;
72408;SDS011;60402;48.082;11.628;2023-12-20T14:11:27;6.10;;;1.83;;
72408;SDS011;60402;48.082;11.628;2023-12-20T14:14:12;4.28;;;2.08;;
72408;SDS011;60402;48.082;11.628;2023-12-20T14:16:58;3.63;;;1.45;;
72408;SDS011;60402;48.082;11.628;2023-12-20T14:19:44;5.90;;;1.70;;
72408;SDS011;60402;48.082;11.628;2023-12-20T14:22:29;7.00;;;1.45;;
72408;SDS011;60402;48.082;11.628;2023-12-20T14:25:15;2.67;;;1.20;;
72408;SDS011;60402;48.082;11.628;2023-12-20T14:28:01;3.08;;;1.13;;
72408;SDS011;60402;48.082;11.628;2023-12-20T14:30:47;4.88;;;1.13;;
72408;SDS011;60402;48.082;11.628;2023-12-20T14:33:34;4.07;;;1.20;;
72408;SDS011;60402;48.082;11.628;2023-12-20T14:36:21;3.75;;;1.20;;
72408;SDS011;60402;48.082;11.628;2023-12-20T14:39:07;4.53;;;1.48;;
72408;SDS011;60402;48.082;11.628;2023-12-20T14:41:54;5.78;;;1.40;;
72408;SDS011;60402;48.082;11.628;2023-12-20T14:44:40;3.40;;;1.13;;
72408;SDS011;60402;48.082;11.628;2023-12-20T14:47:29;4.30;;;1.50;;
72408;SDS011;60402;48.082;11.628;2023-12-20T14:50:14;4.82;;;1.48;;
72408;SDS011;60402;48.082;11.628;2023-12-20T14:53:03;3.05;;;1.38;;
72408;SDS011;60402;48.082;11.628;2023-12-20T14:55:49;3.05;;;1.30;;
72408;SDS011;60402;48.082;11.628;2023-12-20T14:58:36;2.95;;;1.10;;
72408;SDS011;60402;48.082;11.628;2023-12-20T15:01:22;4.53;;;1.42;;
72408;SDS011;60402;48.082;11.628;2023-12-20T15:04:15;6.00;;;1.10;;
72408;SDS011;60402;48.082;11.628;2023-12-20T15:07:00;2.28;;;1.10;;
72408;SDS011;60402;48.082;11.628;2023-12-20T15:09:46;3.83;;;1.17;;
72408;SDS011;60402;48.082;11.628;2023-12-20T15:12:33;5.25;;;1.27;;
72408;SDS011;60402;48.082;11.628;2023-12-20T15:15:19;3.88;;;1.33;;
72408;SDS011;60402;48.082;11.628;2023-12-20T15:18:05;2.83;;;1.30;;
72408;SDS011;60402;48.082;11.628;2023-12-20T15:20:53;5.07;;;1.20;;
72408;SDS011;60402;48.082;11.628;2023-12-20T15:23:39;4.32;;;1.10;;
72408;SDS011;60402;48.082;11.628;2023-12-20T15:26:28;2.80;;;1.30;;
72408;SDS011;60402;48.082;11.628;2023-12-20T15:29:14;2.20;;;0.93;;
72408;SDS011;60402;48.082;11.628;2023-12-20T15:32:00;3.17;;;0.98;;
72408;SDS011;60402;48.082;11.628;2023-12-20T15:34:46;1.52;;;0.95;;
72408;SDS011;60402;48.082;11.628;2023-12-20T15:37:31;2.53;;;1.23;;
72408;SDS011;60402;48.082;11.628;2023-12-20T15:40:17;1.67;;;1.02;;
72408;SDS011;60402;48.082;11.628;2023-12-20T15:43:03;2.45;;;0.90;;
72408;SDS011;60402;48.082;11.628;2023-12-20T15:45:49;1.92;;;0.90;;
72408;SDS011;60402;48.082;11.628;2023-12-20T15:48:34;2.03;;;0.90;;
72408;SDS011;60402;48.082;11.628;2023-12-20T15:51:25;1.60;;;0.80;;
72408;SDS011;60402;48.082;11.628;2023-12-20T15:54:11;3.28;;;1.00;;
72408;SDS011;60402;48.082;11.628;2023-12-20T15:57:03;1.73;;;0.80;;
72408;SDS011;60402;48.082;11.628;2023-12-20T16:00:15;3.30;;;0.88;;
72408;SDS011;60402;48.082;11.628;2023-12-20T16:03:34;2.13;;;0.90;;
72408;SDS011;60402;48.082;11.628;2023-12-20T16:11:58;1.85;;;0.80;;
72408;SDS011;60402;48.082;11.628;2023-12-20T16:19:27;2.58;;;0.75;;
72408;SDS011;60402;48.082;11.628;2023-12-20T16:27:17;3.13;;;1.27;;
72408;SDS011;60402;48.082;11.628;2023-12-20T16:31:04;3.58;;;1.10;;
72408;SDS011;60402;48.082;11.628;2023-12-20T16:37:24;3.67;;;1.02;;
72408;SDS011;60402;48.082;11.628;2023-12-20T17:11:39;4.50;;;2.53;;
72408;SDS011;60402;48.082;11.628;2023-12-20T17:22:43;5.15;;;2.15;;
72408;SDS011;60402;48.082;11.628;2023-12-20T17:29:47;3.42;;;1.55;;
72408;SDS011;60402;48.082;11.628;2023-12-20T17:33:10;2.42;;;1.33;;
72408;SDS011;60402;48.082;11.628;2023-12-20T17:35:55;4.38;;;1.70;;
72408;SDS011;60402;48.082;11.628;2023-12-20T17:38:44;4.32;;;2.30;;